createdAt,value
2023-02-14T00:04:05.952Z,6.00
2023-02-14T00:09:15.806Z,6.70
2023-02-14T00:14:39.907Z,6.90
2023-02-14T00:19:46.073Z,7.20
2023-02-14T00:24:52.019Z,5.60
2023-02-14T00:29:59.753Z,5.40
2023-02-14T00:35:06.108Z,5.70
2023-02-14T00:40:10.735Z,4.50
2023-02-14T00:45:14.720Z,4.10
2023-02-14T00:50:19.354Z,5.70
2023-02-14T00:55:23.987Z,5.50
2023-02-14T01:00:29.179Z,5.60
2023-02-14T01:05:34.116Z,6.90
2023-02-14T01:10:39.638Z,5.50
2023-02-14T01:15:47.707Z,5.20
2023-02-14T01:20:51.476Z,4.50
2023-02-14T01:25:55.690Z,5.70
2023-02-14T01:31:11.876Z,5.00
2023-02-14T01:36:24.240Z,6.40
2023-02-14T01:41:31.298Z,5.30
2023-02-14T01:46:37.732Z,5.10
2023-02-14T01:51:55.718Z,7.00
2023-02-14T01:57:06.894Z,6.80
2023-02-14T02:02:12.444Z,6.50
2023-02-14T02:07:25.573Z,5.90
2023-02-14T02:12:30.994Z,6.70
2023-02-14T02:17:54.606Z,4.80
2023-02-14T02:23:11.644Z,4.40
2023-02-14T02:28:43.040Z,5.60
2023-02-14T02:34:13.312Z,5.50
2023-02-14T02:39:24.508Z,6.20
2023-02-14T02:44:43.625Z,6.50
2023-02-14T02:50:13.001Z,6.30
2023-02-14T02:56:01.447Z,5.20
2023-02-14T03:01:14.258Z,6.00
2023-02-14T03:06:18.805Z,6.10
2023-02-14T03:11:25.394Z,6.50
2023-02-14T03:16:48.363Z,6.70
2023-02-14T03:22:18.605Z,5.80
2023-02-14T03:27:34.612Z,5.60
2023-02-14T03:32:57.275Z,5.80
2023-02-14T03:38:11.140Z,7.50
2023-02-14T03:43:35.048Z,6.80
2023-02-14T03:48:41.583Z,7.20
2023-02-14T03:53:48.041Z,8.30
2023-02-14T03:58:56.301Z,7.00
2023-02-14T04:04:01.530Z,6.80
2023-02-14T04:09:06.377Z,9.80
2023-02-14T04:14:09.798Z,7.60
2023-02-14T04:19:26.974Z,8.60
2023-02-14T04:24:31.850Z,8.10
2023-02-14T04:29:41.853Z,7.30
2023-02-14T04:34:47.288Z,8.80
2023-02-14T04:39:52.156Z,6.70
2023-02-14T04:44:56.965Z,7.30
2023-02-14T04:50:02.188Z,7.40
2023-02-14T04:55:08.943Z,9.20
2023-02-14T05:00:14.566Z,6.80
2023-02-14T05:05:19.048Z,7.10
2023-02-14T05:10:22.469Z,7.60
2023-02-14T05:15:27.789Z,7.40
2023-02-14T05:20:33.147Z,7.50
2023-02-14T05:25:38.595Z,7.00
2023-02-14T05:30:43.680Z,9.70
2023-02-14T05:35:48.361Z,7.60
2023-02-14T05:40:53.082Z,8.30
2023-02-14T05:45:57.967Z,9.80
2023-02-14T05:51:10.225Z,9.80
2023-02-14T05:56:14.072Z,8.80
2023-02-14T06:01:17.510Z,8.00
2023-02-14T06:06:21.135Z,8.80
2023-02-14T06:11:25.603Z,8.70
2023-02-14T06:16:30.265Z,8.00
2023-02-14T06:21:34.940Z,7.90
2023-02-14T06:26:39.279Z,9.80
2023-02-14T06:31:44.880Z,9.20
2023-02-14T06:36:50.335Z,11.10
2023-02-14T06:41:55.119Z,10.80
2023-02-14T06:47:01.330Z,8.70
2023-02-14T06:52:06.499Z,9.10
2023-02-14T06:57:10.821Z,8.30
2023-02-14T07:02:16.511Z,7.60
2023-02-14T07:07:21.260Z,8.10
2023-02-14T07:12:25.983Z,8.80
2023-02-14T07:17:30.002Z,9.10
2023-02-14T07:22:34.212Z,9.20
2023-02-14T07:27:41.068Z,9.20
2023-02-14T07:32:45.787Z,9.90
2023-02-14T07:37:53.947Z,10.00
2023-02-14T07:42:58.802Z,8.90
2023-02-14T07:48:02.757Z,7.50
2023-02-14T07:53:06.419Z,9.80
2023-02-14T07:58:10.466Z,10.00
2023-02-14T08:03:14.714Z,9.70
2023-02-14T08:08:18.863Z,9.40
2023-02-14T08:13:22.885Z,11.30
2023-02-14T08:18:29.163Z,10.30
2023-02-14T08:23:34.321Z,11.30
2023-02-14T08:28:38.300Z,9.70
2023-02-14T08:33:45.186Z,11.40
2023-02-14T08:38:50.408Z,8.10
2023-02-14T08:43:54.742Z,7.80
2023-02-14T08:48:59.354Z,9.80
2023-02-14T08:54:04.241Z,11.40
2023-02-14T08:59:09.034Z,9.00
2023-02-14T09:04:13.600Z,8.20
2023-02-14T09:09:22.215Z,8.10
2023-02-14T09:14:25.989Z,9.50
2023-02-14T09:19:30.947Z,8.10
2023-02-14T09:24:41.188Z,10.00
2023-02-14T09:29:46.596Z,8.30
2023-02-14T09:34:55.416Z,10.50
2023-02-14T09:40:00.778Z,9.30
2023-02-14T09:45:13.206Z,10.50
2023-02-14T09:50:31.664Z,8.80
2023-02-14T09:55:48.076Z,10.80
2023-02-14T10:00:56.177Z,9.70
2023-02-14T10:06:11.729Z,9.30
2023-02-14T10:11:21.050Z,9.60
2023-02-14T10:16:35.213Z,8.70
2023-02-14T10:21:50.246Z,8.80
2023-02-14T10:27:03.292Z,10.00
2023-02-14T10:32:20.546Z,8.90
2023-02-14T10:38:18.886Z,9.00
2023-02-14T10:43:50.330Z,7.60
2023-02-14T10:49:27.149Z,8.60
2023-02-14T10:54:42.332Z,8.20
2023-02-14T11:00:01.076Z,9.20
2023-02-14T11:05:08.513Z,7.10
2023-02-14T11:10:15.752Z,9.70
2023-02-14T11:15:28.620Z,9.80
2023-02-14T11:20:33.387Z,9.00
2023-02-14T11:25:38.102Z,9.10
2023-02-14T11:30:46.758Z,9.40
2023-02-14T11:35:53.122Z,8.80
2023-02-14T11:40:59.593Z,9.30
2023-02-14T11:46:16.725Z,9.60
2023-02-14T11:51:29.586Z,13.00
2023-02-14T11:56:57.624Z,11.80
2023-02-14T12:02:25.032Z,10.20
2023-02-14T12:07:36.941Z,9.80
2023-02-14T12:12:51.779Z,11.30
2023-02-14T12:18:24.291Z,12.00
2023-02-14T12:23:43.144Z,8.30
2023-02-14T12:28:59.343Z,8.50
2023-02-14T12:34:05.755Z,6.60
2023-02-14T12:39:23.066Z,13.00
2023-02-14T12:45:07.221Z,9.80
2023-02-14T12:50:52.281Z,13.00
2023-02-14T12:56:36.005Z,13.50
2023-02-14T13:02:02.684Z,10.10
2023-02-14T13:07:28.888Z,9.00
2023-02-14T13:12:40.725Z,10.60
2023-02-14T13:17:58.334Z,8.00
2023-02-14T13:23:07.019Z,12.50
2023-02-14T13:28:17.591Z,16.30
2023-02-14T13:33:39.711Z,12.80
2023-02-14T13:38:56.279Z,14.50
2023-02-14T13:44:02.957Z,10.30
2023-02-14T13:49:37.568Z,15.10
2023-02-14T13:54:51.196Z,11.30
2023-02-14T14:00:17.166Z,13.70
2023-02-14T14:05:51.079Z,11.10
2023-02-14T14:11:01.221Z,11.70
2023-02-14T14:16:25.389Z,12.70
2023-02-14T14:21:36.020Z,9.10
2023-02-14T14:26:54.153Z,13.00
2023-02-14T14:31:59.429Z,12.10
2023-02-14T14:37:08.198Z,10.60
2023-02-14T14:42:17.920Z,13.30
2023-02-14T14:47:29.467Z,12.70
2023-02-14T14:52:39.938Z,13.40
2023-02-14T14:57:53.711Z,10.60
2023-02-14T15:03:08.949Z,12.90
2023-02-14T15:08:16.249Z,12.40
2023-02-14T15:13:55.417Z,14.70
2023-02-14T15:19:13.148Z,13.40
2023-02-14T15:24:20.004Z,13.00
2023-02-14T15:29:32.792Z,10.90
2023-02-14T15:34:38.532Z,13.20
2023-02-14T15:39:47.505Z,10.90
2023-02-14T15:44:52.481Z,14.60
2023-02-14T15:49:56.476Z,12.50
2023-02-14T15:55:00.364Z,12.70
2023-02-14T16:00:17.252Z,13.50
2023-02-14T16:05:22.099Z,11.20
2023-02-14T16:10:29.397Z,11.50
2023-02-14T16:15:36.666Z,12.30
2023-02-14T16:20:51.665Z,13.70
2023-02-14T16:26:00.367Z,11.70
2023-02-14T16:31:11.316Z,10.50
2023-02-14T16:36:27.698Z,13.00
2023-02-14T16:41:33.867Z,12.50
2023-02-14T16:46:38.092Z,14.40
2023-02-14T16:51:45.766Z,13.60
2023-02-14T16:56:58.622Z,14.30
2023-02-14T17:02:02.754Z,14.20
2023-02-14T17:07:07.445Z,14.30
2023-02-14T17:12:16.902Z,13.60
2023-02-14T17:17:21.307Z,14.90
2023-02-14T17:22:25.052Z,14.80
2023-02-14T17:27:29.816Z,16.50
2023-02-14T17:32:35.765Z,17.00
2023-02-14T17:37:40.817Z,14.60
2023-02-14T17:42:46.339Z,15.30
2023-02-14T17:47:50.279Z,16.30
2023-02-14T17:53:03.455Z,14.90
2023-02-14T17:58:19.195Z,14.90
2023-02-14T18:03:26.176Z,14.10
2023-02-14T18:08:32.163Z,14.00
2023-02-14T18:13:36.401Z,15.00
2023-02-14T18:18:40.673Z,15.30
2023-02-14T18:23:45.407Z,13.70
2023-02-14T18:28:52.297Z,13.10
2023-02-14T18:33:57.314Z,16.80
2023-02-14T18:39:01.458Z,20.60
2023-02-14T18:44:05.811Z,17.80
2023-02-14T18:49:09.791Z,17.00
2023-02-14T18:54:14.941Z,14.10
2023-02-14T18:59:18.464Z,15.10
2023-02-14T19:04:22.044Z,13.70
2023-02-14T19:09:27.938Z,13.20
2023-02-14T19:14:31.318Z,12.50
2023-02-14T19:19:35.428Z,14.80
2023-02-14T19:24:39.934Z,12.10
2023-02-14T19:29:44.914Z,12.80
2023-02-14T19:34:49.074Z,11.70
2023-02-14T19:39:52.746Z,11.00
2023-02-14T19:44:57.534Z,12.40
2023-02-14T19:50:01.785Z,12.10
2023-02-14T19:55:08.120Z,11.60
2023-02-14T20:00:14.626Z,10.50
2023-02-14T20:05:20.798Z,11.50
2023-02-14T20:10:27.286Z,11.70
2023-02-14T20:15:34.044Z,10.30
2023-02-14T20:20:58.463Z,12.00
2023-02-14T20:26:03.775Z,10.30
2023-02-14T20:31:11.549Z,13.40
2023-02-14T20:36:16.255Z,13.80
2023-02-14T20:41:19.792Z,13.60
2023-02-14T20:46:23.630Z,11.90
2023-02-14T20:51:29.017Z,15.20
2023-02-14T20:56:34.003Z,12.40
2023-02-14T21:01:38.988Z,25.90
2023-02-14T21:06:43.098Z,16.30
2023-02-14T21:11:50.741Z,32.70
2023-02-14T21:16:55.721Z,28.70
2023-02-14T21:22:01.604Z,25.50
2023-02-14T21:27:06.474Z,16.00
2023-02-14T21:32:11.680Z,17.70
2023-02-14T21:37:16.293Z,26.60
2023-02-14T21:42:22.708Z,29.30
2023-02-14T21:47:29.492Z,31.60
2023-02-14T21:52:35.510Z,37.40
2023-02-14T21:57:40.036Z,34.20
2023-02-14T22:02:44.807Z,35.50
2023-02-14T22:07:49.780Z,46.90
2023-02-14T22:12:56.661Z,29.90
2023-02-14T22:18:01.370Z,20.50
2023-02-14T22:23:05.650Z,32.00
2023-02-14T22:28:12.431Z,25.70
2023-02-14T22:33:17.095Z,22.50
2023-02-14T22:38:24.706Z,37.80
2023-02-14T22:43:31.059Z,26.20
2023-02-14T22:48:38.276Z,25.40
2023-02-14T22:53:44.474Z,21.90
2023-02-14T22:58:54.161Z,23.40
2023-02-14T23:04:00.477Z,18.80
2023-02-14T23:09:08.071Z,33.50
2023-02-14T23:14:33.570Z,26.90
2023-02-14T23:19:58.446Z,40.10
2023-02-14T23:25:06.721Z,40.70
2023-02-14T23:30:16.800Z,39.80
2023-02-14T23:35:22.222Z,33.30
2023-02-14T23:40:28.542Z,29.70
2023-02-14T23:45:36.986Z,28.10
2023-02-14T23:50:43.323Z,26.60
2023-02-14T23:55:49.075Z,25.70
